Aiwamaru — JD2602 — position and weather

sailwx.info

Track history (hours):
 
Tides and Currents Weather Stations Pressure Air Temp Water Temp Dewpoint Dewpoint Depression Visibility Wind Speed Wind Dir Waves Ship Positions

Aiwamaru

Last reported at 2015-Jul-29 06:15 UTC. Time now 2015-Jul-29 09:31 UTC.
Position N 35°53' E 140°41'.

Length 64 m; draft 4.8 m.

Type: Tanker. MMSI: 431000508.

Date/timePositionNaut miles runAvg speedWind from/ knotsBaromVisibWave heightAir tempDewpointWater temp
2015-Jul-29 06:15N 35°53' E 140°41'0 0.2
2015-Jul-29 04:18N 35°53' E 140°41'0 0.3
2015-Jul-29 03:33N 35°53' E 140°41'4 3.5
2015-Jul-29 02:25N 35°57' E 140°42'0 0.0
2015-Jul-28 23:33N 35°57' E 140°42'0 0.0
2015-Jul-28 22:32N 35°57' E 140°42'0 0.0
2015-Jul-28 21:33N 35°57' E 140°42'0 0.0
2015-Jul-28 20:33N 35°57' E 140°42'0 0.0
2015-Jul-28 19:33N 35°57' E 140°42'0 0.0
2015-Jul-28 18:33N 35°57' E 140°42'0 0.0
2015-Jul-28 17:33N 35°57' E 140°42'0 0.0
2015-Jul-28 16:32N 35°57' E 140°42'0 0.0
2015-Jul-28 15:32N 35°57' E 140°42'9 9.1
2015-Jul-28 14:33N 35°51' E 140°50'3411.0
2015-Jul-28 11:27N 35°19' E 140°36'1312.7
2015-Jul-28 10:25N 35°09' E 140°26'1212.8
2015-Jul-28 09:29N 35°02' E 140°14'1512.9
2015-Jul-28 08:17N 34°54' E 139°58'1011.6
2015-Jul-28 07:27N 34°55' E 139°46'1112.2
2015-Jul-28 06:32N 35°06' E 139°45'1212.0
2015-Jul-28 05:34N 35°18' E 139°44'1010.2
2015-Jul-28 04:34N 35°28' E 139°48'1212.4
2015-Jul-28 03:34N 35°37' E 139°58'4 3.9
2015-Jul-28 02:34N 35°41' E 139°57'0 0.0
2015-Jul-28 01:33N 35°41' E 139°57'0 0.0
2015-Jul-28 00:34N 35°41' E 139°57'0 0.0
2015-Jul-27 23:33N 35°41' E 139°57'5 5.3
2015-Jul-27 22:33N 35°36' E 139°56'2 2.1
2015-Jul-27 21:34N 35°34' E 139°55'0 0.0
2015-Jul-27 20:34N 35°34' E 139°55'0 0.0
2015-Jul-27 19:34N 35°34' E 139°55'0 0.0
2015-Jul-27 18:33N 35°34' E 139°55'0 0.0
2015-Jul-27 17:33N 35°34' E 139°55'0 0.0
2015-Jul-27 16:33N 35°34' E 139°55'0 0.0
2015-Jul-27 15:33N 35°34' E 139°55'0 0.0
2015-Jul-27 14:33N 35°34' E 139°55'0 0.0
2015-Jul-27 13:34N 35°34' E 139°55'0 0.0
2015-Jul-27 12:33N 35°34' E 139°55'9 8.6
2015-Jul-27 11:33N 35°27' E 139°49'1010.2
2015-Jul-27 10:33N 35°17' E 139°46'1010.2
2015-Jul-27 09:33N 35°07' E 139°45'243 9.3
2015-Jul-26 07:24N 34°05' E 134°60'16 8.9
2015-Jul-26 05:33N 34°21' E 134°59'10 9.9
2015-Jul-26 04:34N 34°31' E 135°02'7 6.8
2015-Jul-26 03:33N 34°36' E 134°57'  
2015-Jul-21 22:14N 35°55' E 140°42'2 2.4
2015-Jul-21 21:33N 35°57' E 140°42'0 0.0
2015-Jul-21 20:29N 35°57' E 140°42'77 8.5
2015-Jul-21 11:26N 34°55' E 139°46'2010.9
2015-Jul-21 09:33N 35°15' E 139°46'8 8.1
2015-Jul-21 08:33N 35°23' E 139°42'6 5.5
2015-Jul-21 07:33N 35°27' E 139°46'3 2.9
2015-Jul-21 06:33N 35°30' E 139°48'2 1.7
2015-Jul-21 05:33N 35°31' E 139°46'0 0.0
2015-Jul-21 04:33N 35°31' E 139°46'0 0.0
2015-Jul-21 03:33N 35°31' E 139°46'0 0.0
2015-Jul-21 02:33N 35°31' E 139°46'3 2.7
2015-Jul-21 01:33N 35°29' E 139°49'0 0.0
2015-Jul-21 00:33N 35°29' E 139°49'0 0.0
2015-Jul-20 23:33N 35°29' E 139°49'4 3.6
2015-Jul-20 22:33N 35°26' E 139°47'1010.1
2015-Jul-20 21:33N 35°16' E 139°47'1211.4
2015-Jul-20 20:33N 35°04' E 139°44'1512.4
2015-Jul-20 19:21N 34°56' E 139°29'283 9.8
2015-Jul-19 14:33N 34°21' E 133°47'  
Track history (hours):
 
Tides and Currents Weather Stations Pressure Air Temp Water Temp Dewpoint Dewpoint Depression Visibility Wind Speed Wind Dir Waves Ship Positions

Aiwamaru

Last reported at 2015-Jul-29 06:15 UTC. Time now 2015-Jul-29 09:31 UTC.
Position N 35°53' E 140°41'.

Length 64 m; draft 4.8 m.

Type: Tanker. MMSI: 431000508.

Date/timePositionNaut miles runAvg speedWind from/ knotsBaromVisibWave heightAir tempDewpointWater temp
2015-Jul-29 06:15N 35°53' E 140°41'0 0.2
2015-Jul-29 04:18N 35°53' E 140°41'0 0.3
2015-Jul-29 03:33N 35°53' E 140°41'4 3.5
2015-Jul-29 02:25N 35°57' E 140°42'0 0.0
2015-Jul-28 23:33N 35°57' E 140°42'0 0.0
2015-Jul-28 22:32N 35°57' E 140°42'0 0.0
2015-Jul-28 21:33N 35°57' E 140°42'0 0.0
2015-Jul-28 20:33N 35°57' E 140°42'0 0.0
2015-Jul-28 19:33N 35°57' E 140°42'0 0.0
2015-Jul-28 18:33N 35°57' E 140°42'0 0.0
2015-Jul-28 17:33N 35°57' E 140°42'0 0.0
2015-Jul-28 16:32N 35°57' E 140°42'0 0.0
2015-Jul-28 15:32N 35°57' E 140°42'9 9.1
2015-Jul-28 14:33N 35°51' E 140°50'3411.0
2015-Jul-28 11:27N 35°19' E 140°36'1312.7
2015-Jul-28 10:25N 35°09' E 140°26'1212.8
2015-Jul-28 09:29N 35°02' E 140°14'1512.9
2015-Jul-28 08:17N 34°54' E 139°58'1011.6
2015-Jul-28 07:27N 34°55' E 139°46'1112.2
2015-Jul-28 06:32N 35°06' E 139°45'1212.0
2015-Jul-28 05:34N 35°18' E 139°44'1010.2
2015-Jul-28 04:34N 35°28' E 139°48'1212.4
2015-Jul-28 03:34N 35°37' E 139°58'4 3.9
2015-Jul-28 02:34N 35°41' E 139°57'0 0.0
2015-Jul-28 01:33N 35°41' E 139°57'0 0.0
2015-Jul-28 00:34N 35°41' E 139°57'0 0.0
2015-Jul-27 23:33N 35°41' E 139°57'5 5.3
2015-Jul-27 22:33N 35°36' E 139°56'2 2.1
2015-Jul-27 21:34N 35°34' E 139°55'0 0.0
2015-Jul-27 20:34N 35°34' E 139°55'0 0.0
2015-Jul-27 19:34N 35°34' E 139°55'0 0.0
2015-Jul-27 18:33N 35°34' E 139°55'0 0.0
2015-Jul-27 17:33N 35°34' E 139°55'0 0.0
2015-Jul-27 16:33N 35°34' E 139°55'0 0.0
2015-Jul-27 15:33N 35°34' E 139°55'0 0.0
2015-Jul-27 14:33N 35°34' E 139°55'0 0.0
2015-Jul-27 13:34N 35°34' E 139°55'0 0.0
2015-Jul-27 12:33N 35°34' E 139°55'9 8.6
2015-Jul-27 11:33N 35°27' E 139°49'1010.2
2015-Jul-27 10:33N 35°17' E 139°46'1010.2
2015-Jul-27 09:33N 35°07' E 139°45'243 9.3
2015-Jul-26 07:24N 34°05' E 134°60'16 8.9
2015-Jul-26 05:33N 34°21' E 134°59'10 9.9
2015-Jul-26 04:34N 34°31' E 135°02'7 6.8
2015-Jul-26 03:33N 34°36' E 134°57'  
2015-Jul-21 22:14N 35°55' E 140°42'2 2.4
2015-Jul-21 21:33N 35°57' E 140°42'0 0.0
2015-Jul-21 20:29N 35°57' E 140°42'77 8.5
2015-Jul-21 11:26N 34°55' E 139°46'2010.9
2015-Jul-21 09:33N 35°15' E 139°46'8 8.1
2015-Jul-21 08:33N 35°23' E 139°42'6 5.5
2015-Jul-21 07:33N 35°27' E 139°46'3 2.9
2015-Jul-21 06:33N 35°30' E 139°48'2 1.7
2015-Jul-21 05:33N 35°31' E 139°46'0 0.0
2015-Jul-21 04:33N 35°31' E 139°46'0 0.0
2015-Jul-21 03:33N 35°31' E 139°46'0 0.0
2015-Jul-21 02:33N 35°31' E 139°46'3 2.7
2015-Jul-21 01:33N 35°29' E 139°49'0 0.0
2015-Jul-21 00:33N 35°29' E 139°49'0 0.0
2015-Jul-20 23:33N 35°29' E 139°49'4 3.6
2015-Jul-20 22:33N 35°26' E 139°47'1010.1
2015-Jul-20 21:33N 35°16' E 139°47'1211.4
2015-Jul-20 20:33N 35°04' E 139°44'1512.4
2015-Jul-20 19:21N 34°56' E 139°29'283 9.8
2015-Jul-19 14:33N 34°21' E 133°47'  

Dump ship's entire track history